Time;durP1;ratioP1;P1;durP2;ratioP2;P2;SDS_P1;SDS_P2;PMS_P1;PMS_P2;Temp;Humidity;BMP_temperature;BMP_pressure;BME280_temperature;BME280_humidity;BME280_pressure;Samples;Min_cycle;Max_cycle;Signal;HPM_P1;HPM_P2
2022/09/10 00:00:18;;;;;;;13.35;10.45;;;;;;;22.25;62.05;94587.09;4210567;28;20056;-62
2022/09/10 00:02:19;;;;;;;15.70;10.05;;;;;;;22.21;61.84;94581.38;4210147;28;20052;-64
2022/09/10 00:04:21;;;;;;;16.00;9.98;;;;;;;22.20;62.09;94579.78;4210970;28;20094;-64
2022/09/10 00:06:26;;;;;;;20.88;10.02;;;;;;;22.19;61.99;94582.66;4210849;28;20080;-63
2022/09/10 00:08:29;;;;;;;20.70;10.48;;;;;;;22.17;62.39;94585.56;4208364;28;20105;-64
2022/09/10 00:10:30;;;;;;;13.50;9.27;;;;;;;22.18;62.15;94581.88;4210671;28;20044;-66
2022/09/10 00:12:33;;;;;;;15.50;9.70;;;;;;;22.20;61.92;94573.59;4210995;28;20627;-64
2022/09/10 00:14:35;;;;;;;14.10;9.43;;;;;;;22.18;62.17;94581.88;4209574;28;20135;-66
2022/09/10 00:16:37;;;;;;;16.13;9.15;;;;;;;22.19;62.29;94586.13;4210238;28;20063;-64
2022/09/10 00:18:40;;;;;;;10.73;9.15;;;;;;;22.20;62.27;94584.28;4210225;28;20131;-64
2022/09/10 00:20:52;;;;;;;13.03;10.30;;;;;;;22.18;62.49;94584.53;4210069;28;20690;-65
2022/09/10 00:22:54;;;;;;;14.80;9.50;;;;;;;22.17;62.21;94588.22;4209627;28;20488;-65
2022/09/10 00:24:56;;;;;;;15.35;10.18;;;;;;;22.18;62.62;94583.72;4205720;28;20526;-65
2022/09/10 00:26:58;;;;;;;15.30;10.07;;;;;;;22.09;62.50;94580.56;4210974;28;20467;-65
2022/09/10 00:29:00;;;;;;;15.80;9.80;;;;;;;21.95;63.24;94577.34;4209515;28;20469;-65
2022/09/10 00:31:02;;;;;;;14.32;9.90;;;;;;;21.95;63.09;94585.34;4209274;28;20056;-65
2022/09/10 00:33:04;;;;;;;16.23;10.25;;;;;;;21.95;63.21;94576.53;4209238;28;20064;-64
2022/09/10 00:35:06;;;;;;;13.98;9.38;;;;;;;21.86;63.54;94587.56;4211013;28;20056;-66
2022/09/10 00:37:08;;;;;;;17.92;10.63;;;;;;;21.73;63.71;94587.78;4208842;28;20116;-64
2022/09/10 00:39:13;;;;;;;15.05;10.63;;;;;;;21.70;63.81;94585.56;4207504;28;20131;-64
2022/09/10 00:41:16;;;;;;;16.80;11.23;;;;;;;21.74;63.75;94589.41;4200123;28;20095;-64
2022/09/10 00:43:20;;;;;;;18.15;11.32;;;;;;;21.76;63.64;94584.66;4202566;28;20083;-64
2022/09/10 00:45:31;;;;;;;18.67;11.02;;;;;;;21.77;63.93;94588.13;4206697;28;20043;-65
2022/09/10 00:47:37;;;;;;;15.93;10.00;;;;;;;21.75;63.78;94580.38;4210598;28;20052;-65
2022/09/10 00:49:44;;;;;;;15.88;10.60;;;;;;;21.65;63.90;94583.59;4211207;28;20078;-64
2022/09/10 00:51:47;;;;;;;19.60;10.70;;;;;;;21.65;63.91;94585.47;4213574;28;20059;-65
2022/09/10 00:53:49;;;;;;;15.75;10.27;;;;;;;21.71;64.17;94587.22;4212737;28;20111;-63
2022/09/10 00:55:54;;;;;;;17.20;9.85;;;;;;;21.77;64.24;94585.47;4211764;28;20048;-64
2022/09/10 00:57:59;;;;;;;17.63;10.27;;;;;;;21.80;63.71;94579.69;4212224;28;20075;-63
2022/09/10 01:00:06;;;;;;;14.38;9.77;;;;;;;21.74;63.42;94577.94;4214040;28;20048;-63
2022/09/10 01:02:08;;;;;;;18.40;9.50;;;;;;;21.73;63.64;94581.66;4212540;28;20227;-64
2022/09/10 01:04:10;;;;;;;13.68;9.10;;;;;;;21.61;63.69;94570.97;4197388;28;20048;-64
2022/09/10 01:06:12;;;;;;;15.55;9.85;;;;;;;21.61;63.81;94571.78;4209625;28;20136;-64
2022/09/10 01:08:15;;;;;;;15.90;10.77;;;;;;;21.56;63.78;94579.66;4213565;28;20525;-63
2022/09/10 01:10:23;;;;;;;14.85;10.30;;;;;;;21.53;64.00;94573.97;4210342;28;20469;-65
2022/09/10 01:13:05;;;;;;;13.27;10.02;;;;;;;21.51;64.01;94571.56;4200623;28;20126;-64
2022/09/10 01:15:23;;;;;;;14.30;10.30;;;;;;;21.52;64.09;94575.81;4200243;28;20059;-64
2022/09/10 01:17:28;;;;;;;15.35;9.82;;;;;;;21.51;64.09;94571.56;4212265;28;20485;-65
2022/09/10 01:19:59;;;;;;;15.50;11.02;;;;;;;21.51;64.48;94566.22;4211958;28;20040;-65
2022/09/10 01:22:18;;;;;;;13.43;10.38;;;;;;;21.52;64.51;94559.03;4211372;28;20109;-64
2022/09/10 01:24:23;;;;;;;17.52;10.30;;;;;;;21.57;64.45;94551.94;4214613;28;20083;-64
2022/09/10 01:26:43;;;;;;;16.60;10.10;;;;;;;21.64;64.33;94557.19;4218458;28;20091;-65
2022/09/10 01:29:08;;;;;;;14.85;10.27;;;;;;;21.65;64.08;94559.59;4211282;28;20540;-64
2022/09/10 01:31:44;;;;;;;16.85;10.32;;;;;;;21.49;64.47;94554.97;4212670;28;20151;-66
2022/09/10 01:33:56;;;;;;;16.17;10.77;;;;;;;21.37;65.13;94549.59;4172319;28;20567;-67
2022/09/10 01:36:05;;;;;;;12.05;10.38;;;;;;;21.28;65.30;94546.44;4188705;28;20127;-63
2022/09/10 01:38:14;;;;;;;13.63;10.57;;;;;;;21.29;65.25;94547.25;4177665;28;20045;-64
2022/09/10 01:40:16;;;;;;;16.10;9.95;;;;;;;21.35;65.16;94550.88;4186064;28;20079;-63
2022/09/10 01:42:18;;;;;;;16.02;10.52;;;;;;;21.37;65.23;94543.47;4177250;28;20148;-65
2022/09/10 01:44:48;;;;;;;14.73;10.50;;;;;;;21.40;64.98;94541.16;4188086;28;20049;-66
2022/09/10 01:46:59;;;;;;;17.67;10.10;;;;;;;21.50;64.86;94548.59;4187226;28;20137;-66
2022/09/10 01:49:24;;;;;;;14.50;10.10;;;;;;;21.59;64.54;94546.41;4188360;28;20044;-64
2022/09/10 01:51:41;;;;;;;15.00;9.95;;;;;;;21.66;64.40;94544.41;4176695;28;20518;-65
2022/09/10 01:54:10;;;;;;;13.82;9.05;;;;;;;21.73;64.01;94560.31;4194070;28;20053;-64
2022/09/10 01:56:39;;;;;;;18.35;10.35;;;;;;;21.76;64.17;94555.31;4175550;28;20084;-63
2022/09/10 01:58:42;;;;;;;15.50;9.82;;;;;;;21.81;63.76;94559.94;4193705;28;20145;-61
2022/09/10 02:01:13;;;;;;;14.85;9.80;;;;;;;21.83;63.81;94564.03;4179568;28;20143;-61
2022/09/10 02:03:17;;;;;;;17.42;9.75;;;;;;;21.88;63.57;94571.34;4180380;28;20117;-65
2022/09/10 02:05:22;;;;;;;15.43;10.07;;;;;;;21.91;63.33;94576.19;4201404;28;20474;-64
2022/09/10 02:07:25;;;;;;;15.25;9.93;;;;;;;21.90;63.52;94574.59;4211033;28;20052;-64
2022/09/10 02:09:27;;;;;;;12.18;9.25;;;;;;;21.88;63.48;94574.81;4211318;28;20135;-64
2022/09/10 02:11:29;;;;;;;16.73;10.15;;;;;;;21.87;63.74;94567.84;4211041;28;20129;-65
2022/09/10 02:13:33;;;;;;;13.50;9.05;;;;;;;21.87;63.99;94570.50;4212488;28;20048;-65
2022/09/10 02:15:36;;;;;;;15.32;9.73;;;;;;;21.82;63.72;94556.25;4200212;28;20090;-63
2022/09/10 02:17:39;;;;;;;13.27;10.15;;;;;;;21.79;63.99;94559.38;4209322;28;20129;-64
2022/09/10 02:19:43;;;;;;;16.58;9.32;;;;;;;21.79;64.00;94572.69;4197231;28;20154;-63
2022/09/10 02:21:45;;;;;;;10.77;9.02;;;;;;;21.79;63.80;94570.03;4208568;28;20126;-65
2022/09/10 02:23:55;;;;;;;16.38;9.52;;;;;;;21.78;63.89;94565.75;4212503;28;20131;-58
2022/09/10 02:25:57;;;;;;;16.27;9.65;;;;;;;21.78;63.81;94560.44;4210984;28;20089;-58
2022/09/10 02:27:59;;;;;;;16.40;11.43;;;;;;;21.80;63.89;94564.47;4211814;28;20478;-59
2022/09/10 02:30:01;;;;;;;11.98;9.32;;;;;;;21.85;63.65;94558.44;4210181;28;20144;-59
2022/09/10 02:32:03;;;;;;;12.13;9.00;;;;;;;21.83;63.71;94558.69;4211464;28;20123;-58
2022/09/10 02:34:05;;;;;;;14.05;9.50;;;;;;;21.84;63.83;94554.16;4211431;28;20131;-58
2022/09/10 02:36:07;;;;;;;19.63;10.57;;;;;;;21.75;64.16;94566.25;4209292;28;20091;-59
2022/09/10 02:38:09;;;;;;;13.20;10.10;;;;;;;21.20;66.20;94575.28;4208720;28;20080;-59
2022/09/10 02:40:11;;;;;;;17.65;11.10;;;;;;;20.72;67.99;94576.16;4208736;28;20139;-58
2022/09/10 02:42:15;;;;;;;17.23;10.52;;;;;;;20.34;69.51;94571.88;4209524;28;20097;-60
2022/09/10 02:44:17;;;;;;;13.77;10.68;;;;;;;20.21;70.31;94578.16;4210837;28;20048;-61
2022/09/10 02:46:19;;;;;;;18.17;11.13;;;;;;;20.37;69.98;94568.75;4211679;28;20090;-58
2022/09/10 02:48:21;;;;;;;16.05;11.20;;;;;;;20.49;69.42;94569.66;4211668;28;20139;-58
2022/09/10 02:50:23;;;;;;;17.45;10.80;;;;;;;20.56;69.22;94572.22;4211741;28;20136;-58
2022/09/10 02:52:24;;;;;;;12.45;9.88;;;;;;;20.50;69.21;94573.94;4211635;28;20126;-63
2022/09/10 02:54:26;;;;;;;15.15;11.07;;;;;;;20.40;69.62;94582.44;4195368;28;20066;-60
2022/09/10 02:56:28;;;;;;;18.92;10.88;;;;;;;20.23;70.05;94579.56;4200368;28;20139;-59
2022/09/10 02:58:30;;;;;;;17.05;11.13;;;;;;;20.19;70.37;94574.91;4210893;28;20044;-58
2022/09/10 03:00:32;;;;;;;19.52;11.30;;;;;;;20.30;70.10;94581.34;4210924;28;20055;-59
2022/09/10 03:02:35;;;;;;;16.85;10.43;;;;;;;20.42;69.77;94574.25;4211849;28;20530;-59
2022/09/10 03:04:37;;;;;;;14.90;10.85;;;;;;;20.56;69.37;94574.88;4211612;28;20083;-60
2022/09/10 03:06:39;;;;;;;18.95;11.38;;;;;;;20.74;68.74;94566.09;4211813;28;20044;-59
2022/09/10 03:08:41;;;;;;;16.75;11.00;;;;;;;20.83;68.03;94572.72;4199172;28;20088;-58
2022/09/10 03:10:44;;;;;;;15.82;10.52;;;;;;;20.77;68.20;94571.78;4210336;28;20381;-59
2022/09/10 03:12:46;;;;;;;16.92;10.73;;;;;;;20.81;68.43;94574.81;4210538;28;20079;-60
2022/09/10 03:14:49;;;;;;;16.83;9.65;;;;;;;20.90;68.09;94570.78;4211781;28;20048;-59
2022/09/10 03:16:51;;;;;;;15.32;9.95;;;;;;;20.98;67.45;94574.97;4209456;28;20081;-59
2022/09/10 03:18:53;;;;;;;14.10;9.85;;;;;;;21.07;67.49;94574.41;4199543;28;20528;-59
2022/09/10 03:20:54;;;;;;;17.35;9.80;;;;;;;21.15;67.01;94573.28;4210191;28;20597;-62
2022/09/10 03:22:56;;;;;;;13.70;9.07;;;;;;;21.20;66.89;94578.75;4211463;28;20044;-59
2022/09/10 03:24:58;;;;;;;15.05;10.45;;;;;;;21.23;66.62;94575.63;4209485;28;20803;-57
2022/09/10 03:27:00;;;;;;;12.07;9.93;;;;;;;21.26;66.82;94567.19;4208316;28;20067;-57
2022/09/10 03:29:02;;;;;;;15.75;9.98;;;;;;;21.32;66.67;94565.47;4208778;28;20087;-57
2022/09/10 03:31:04;;;;;;;13.45;8.70;;;;;;;21.38;66.32;94561.06;4194835;28;20044;-59
2022/09/10 03:33:06;;;;;;;13.30;10.05;;;;;;;21.43;66.12;94559.38;4210208;28;20088;-59
2022/09/10 03:35:09;;;;;;;11.45;9.23;;;;;;;21.45;66.42;94562.63;4209981;28;20421;-61
2022/09/10 03:37:10;;;;;;;14.15;9.73;;;;;;;21.49;66.33;94557.66;4211027;28;20067;-59
2022/09/10 03:39:15;;;;;;;12.88;9.68;;;;;;;21.49;66.15;94557.66;4211185;28;20088;-60
2022/09/10 03:41:17;;;;;;;12.85;9.25;;;;;;;21.53;65.94;94552.66;4209697;28;20050;-59
2022/09/10 03:43:21;;;;;;;13.65;9.60;;;;;;;21.54;66.01;94554.28;4211261;28;20389;-60
2022/09/10 03:45:22;;;;;;;15.82;10.18;;;;;;;21.57;65.53;94543.94;4204671;28;20071;-60
2022/09/10 03:47:24;;;;;;;24.67;10.95;;;;;;;21.57;65.68;94551.16;4205309;28;20044;-59
2022/09/10 03:49:26;;;;;;;28.40;10.50;;;;;;;21.60;65.66;94548.84;4205274;28;20520;-57
2022/09/10 03:51:29;;;;;;;16.02;9.60;;;;;;;21.58;65.61;94550.91;4204818;28;20075;-58
2022/09/10 03:53:31;;;;;;;15.07;9.95;;;;;;;21.56;65.46;94547.69;4202566;28;20057;-59
2022/09/10 03:55:33;;;;;;;13.70;9.55;;;;;;;21.51;65.25;94536.06;4205583;28;20079;-58
2022/09/10 03:57:34;;;;;;;15.55;9.85;;;;;;;21.45;65.58;94535.16;4200586;28;20056;-58
2022/09/10 03:59:39;;;;;;;17.42;9.70;;;;;;;21.36;65.83;94536.47;4196412;28;20127;-58
2022/09/10 04:01:41;;;;;;;19.35;10.15;;;;;;;21.20;66.70;94541.44;4194450;28;20049;-59
2022/09/10 04:03:43;;;;;;;12.13;9.60;;;;;;;21.14;66.64;94550.34;4195438;28;20058;-62
2022/09/10 04:05:45;;;;;;;14.88;9.80;;;;;;;21.10;66.98;94556.38;4198065;28;20082;-59
2022/09/10 04:07:47;;;;;;;15.60;9.40;;;;;;;21.13;66.99;94543.41;4204677;28;20048;-58
2022/09/10 04:09:49;;;;;;;13.75;9.75;;;;;;;21.18;66.87;94548.84;4193937;28;20048;-58
2022/09/10 04:11:50;;;;;;;11.98;9.02;;;;;;;21.24;66.69;94542.63;4209963;28;20055;-59
2022/09/10 04:13:53;;;;;;;17.85;10.32;;;;;;;21.30;66.67;94546.22;4202806;28;20720;-59
2022/09/10 04:15:55;;;;;;;13.43;9.85;;;;;;;21.38;66.82;94550.38;4208826;28;20092;-60
2022/09/10 04:17:56;;;;;;;14.63;9.32;;;;;;;21.42;66.19;94551.59;4206508;28;20075;-59
2022/09/10 04:19:58;;;;;;;13.43;9.77;;;;;;;21.46;66.18;94558.09;4205875;28;20103;-60
2022/09/10 04:24:19;;;;;;;15.35;9.30;;;;;;;21.54;65.59;94575.59;4199101;28;20051;-59
2022/09/10 04:26:22;;;;;;;15.02;9.93;;;;;;;21.56;65.51;94577.00;4209214;28;20526;-58
2022/09/10 04:28:23;;;;;;;13.77;9.98;;;;;;;21.56;65.71;94579.66;4208628;28;20574;-58
2022/09/10 04:30:25;;;;;;;15.70;10.55;;;;;;;21.50;65.67;94585.91;4209432;28;20045;-59
2022/09/10 04:32:27;;;;;;;17.08;9.90;;;;;;;21.43;65.90;94575.34;4214364;28;20079;-59
2022/09/10 04:34:28;;;;;;;26.70;10.40;;;;;;;21.27;66.48;94579.47;4211665;28;20083;-62
2022/09/10 04:36:30;;;;;;;13.00;9.30;;;;;;;21.24;66.60;94577.25;4213762;28;20048;-59
2022/09/10 04:38:32;;;;;;;16.85;10.85;;;;;;;21.19;66.63;94573.66;4209645;28;20079;-61
2022/09/10 04:40:34;;;;;;;13.43;10.57;;;;;;;21.08;67.15;94572.59;4209923;28;20054;-59
2022/09/10 04:42:36;;;;;;;15.88;10.85;;;;;;;20.75;67.94;94568.53;4213317;28;20055;-58
2022/09/10 04:44:37;;;;;;;18.50;10.77;;;;;;;20.56;69.00;94564.22;4212759;28;20385;-59
2022/09/10 04:46:40;;;;;;;21.00;11.68;;;;;;;20.60;68.93;94566.25;4214195;28;20123;-59
2022/09/10 04:48:42;;;;;;;20.55;10.65;;;;;;;20.71;68.82;94566.53;4203097;28;20370;-60
2022/09/10 04:50:44;;;;;;;19.10;11.13;;;;;;;20.84;68.40;94551.22;4210988;28;20084;-59
2022/09/10 04:53:06;;;;;;;17.17;10.68;;;;;;;20.98;68.16;94543.03;4202970;28;20051;-60
2022/09/10 04:55:09;;;;;;;18.92;10.48;;;;;;;21.11;67.87;94550.81;4212232;28;20071;-59
2022/09/10 04:57:11;;;;;;;13.40;10.35;;;;;;;21.20;67.55;94554.75;4213302;28;20131;-59
2022/09/10 04:59:13;;;;;;;15.60;9.73;;;;;;;21.32;67.16;94548.66;4210946;28;20071;-59
2022/09/10 05:01:14;;;;;;;13.10;10.00;;;;;;;21.40;66.90;94543.81;4213296;28;20083;-57
2022/09/10 05:03:17;;;;;;;16.58;9.75;;;;;;;21.46;66.80;94542.91;4213444;28;20626;-58
2022/09/10 05:05:18;;;;;;;17.92;10.70;;;;;;;21.52;66.81;94546.50;4213029;28;20044;-63
2022/09/10 05:07:20;;;;;;;14.75;10.25;;;;;;;21.55;66.92;94546.03;4212599;28;20072;-66
2022/09/10 05:09:22;;;;;;;17.02;10.88;;;;;;;21.58;66.84;94550.91;4213963;28;20044;-64
2022/09/10 05:11:24;;;;;;;14.15;10.65;;;;;;;21.57;67.33;94551.16;4211252;28;20649;-64
2022/09/10 05:13:25;;;;;;;14.60;11.00;;;;;;;21.57;67.48;94556.47;4212717;28;20131;-66
2022/09/10 05:15:27;;;;;;;17.10;11.48;;;;;;;21.56;67.45;94558.34;4213135;28;20048;-67
2022/09/10 05:17:29;;;;;;;33.65;12.80;;;;;;;21.53;67.61;94558.81;4201020;28;20595;-62
2022/09/10 05:19:30;;;;;;;19.85;12.18;;;;;;;21.51;68.00;94576.88;4210565;28;20189;-63
2022/09/10 05:21:32;;;;;;;17.88;11.75;;;;;;;21.42;68.15;94568.41;4197711;28;20163;-64
2022/09/10 05:23:34;;;;;;;21.20;11.65;;;;;;;21.28;68.27;94564.28;4198002;28;20584;-64
2022/09/10 05:25:36;;;;;;;18.50;11.18;;;;;;;21.11;68.60;94571.31;4197283;28;20091;-64
2022/09/10 05:27:38;;;;;;;19.73;13.02;;;;;;;20.96;68.61;94574.41;4200214;28;20064;-65
2022/09/10 05:29:40;;;;;;;22.60;14.00;;;;;;;20.68;69.36;94578.44;4209790;28;20043;-65
2022/09/10 05:31:41;;;;;;;21.38;13.80;;;;;;;20.45;69.88;94579.91;4213276;28;20059;-66
2022/09/10 05:33:43;;;;;;;23.80;13.80;;;;;;;20.17;70.90;94582.28;4212998;28;20087;-65
2022/09/10 05:35:47;;;;;;;20.00;13.63;;;;;;;20.15;70.91;94576.38;4196098;28;20048;-65
2022/09/10 05:37:49;;;;;;;16.63;12.07;;;;;;;20.23;70.56;94576.09;4201634;28;20043;-66
2022/09/10 05:39:51;;;;;;;20.25;14.15;;;;;;;20.40;70.71;94573.66;4200473;28;20085;-64
2022/09/10 05:41:54;;;;;;;22.70;12.65;;;;;;;20.53;70.27;94581.47;4211555;28;20052;-65
2022/09/10 05:43:56;;;;;;;24.08;13.90;;;;;;;20.62;70.39;94568.69;4208698;28;20097;-65
2022/09/10 05:45:58;;;;;;;18.02;13.07;;;;;;;20.79;69.81;94566.22;4210013;28;20052;-65
2022/09/10 05:47:59;;;;;;;19.65;12.68;;;;;;;20.95;69.87;94570.94;4201446;28;20109;-65
2022/09/10 05:50:01;;;;;;;19.17;13.05;;;;;;;21.15;69.52;94572.50;4212114;28;20048;-65
2022/09/10 05:52:03;;;;;;;20.17;12.45;;;;;;;21.31;68.56;94571.00;4211985;28;20072;-66
2022/09/10 05:54:04;;;;;;;18.35;11.82;;;;;;;21.50;68.37;94571.78;4212917;28;20130;-66
2022/09/10 05:56:06;;;;;;;17.15;12.13;;;;;;;21.68;67.34;94561.00;4198245;28;20123;-64
2022/09/10 05:58:08;;;;;;;23.58;12.63;;;;;;;21.87;66.79;94567.03;4203674;28;20168;-66
2022/09/10 06:00:10;;;;;;;19.67;12.43;;;;;;;22.03;65.94;94570.88;4212841;28;20066;-64
2022/09/10 06:02:16;;;;;;;21.80;12.15;;;;;;;22.16;65.46;94570.63;4212782;28;20393;-64
2022/09/10 06:04:24;;;;;;;16.50;11.60;;;;;;;22.21;65.01;94572.56;4207480;28;20088;-65
2022/09/10 06:06:27;;;;;;;21.58;12.25;;;;;;;22.24;64.63;94564.13;4196289;28;20128;-62
2022/09/10 06:08:30;;;;;;;18.33;12.27;;;;;;;22.02;65.47;94561.22;4209215;28;20080;-59
2022/09/10 06:10:32;;;;;;;16.00;12.52;;;;;;;22.04;65.63;94564.47;4199024;28;20047;-61
2022/09/10 06:12:34;;;;;;;17.30;12.32;;;;;;;22.00;65.41;94568.66;4206423;28;20128;-58
2022/09/10 06:14:36;;;;;;;21.88;12.43;;;;;;;21.99;65.83;94567.84;4211743;28;20080;-59
2022/09/10 06:16:38;;;;;;;18.35;12.23;;;;;;;21.77;66.70;94574.78;4212083;28;20552;-60
2022/09/10 06:18:41;;;;;;;16.27;12.18;;;;;;;21.87;66.69;94572.34;4212839;28;20442;-60
2022/09/10 06:20:43;;;;;;;14.65;11.90;;;;;;;22.02;66.02;94574.56;4211110;28;20036;-58
2022/09/10 06:22:44;;;;;;;17.50;12.40;;;;;;;21.99;65.49;94569.72;4199773;28;20051;-59
2022/09/10 06:24:49;;;;;;;19.30;12.68;;;;;;;22.07;65.41;94570.16;4210302;28;20048;-58
2022/09/10 06:26:50;;;;;;;22.30;11.98;;;;;;;22.21;65.18;94568.03;4211856;28;20488;-59
2022/09/10 06:28:54;;;;;;;23.38;12.50;;;;;;;22.14;64.33;94564.69;4212485;28;20058;-61
2022/09/10 06:30:55;;;;;;;19.90;12.70;;;;;;;22.14;64.48;94567.38;4211154;28;20502;-60
2022/09/10 06:32:57;;;;;;;17.08;12.13;;;;;;;22.17;64.26;94566.09;4212570;28;20610;-61
2022/09/10 06:34:59;;;;;;;19.95;12.35;;;;;;;22.18;64.19;94573.84;4211931;28;20130;-58
2022/09/10 06:37:02;;;;;;;20.20;12.95;;;;;;;22.21;64.05;94573.38;4210636;28;20335;-61
2022/09/10 06:39:05;;;;;;;21.45;11.93;;;;;;;22.27;64.30;94577.81;4211476;28;20044;-61
2022/09/10 06:41:12;;;;;;;17.20;12.75;;;;;;;22.38;63.85;94578.84;4209636;28;20086;-60
2022/09/10 06:43:13;;;;;;;21.60;12.68;;;;;;;22.42;63.66;94571.97;4210224;28;20143;-60
2022/09/10 06:45:15;;;;;;;20.13;12.20;;;;;;;22.48;63.07;94572.91;4212131;28;20083;-59
2022/09/10 06:47:17;;;;;;;22.50;12.38;;;;;;;22.56;62.88;94569.03;4212132;28;20489;-63
2022/09/10 06:49:39;;;;;;;18.35;11.60;;;;;;;22.67;62.37;94566.34;4195605;28;20088;-61
2022/09/10 06:51:41;;;;;;;21.15;11.90;;;;;;;22.82;62.17;94563.16;4202503;28;20044;-59
2022/09/10 06:53:46;;;;;;;24.48;13.00;;;;;;;22.92;61.90;94559.84;4210477;28;20059;-60
2022/09/10 06:55:49;;;;;;;19.90;11.90;;;;;;;23.07;61.47;94562.81;4208457;28;20055;-59
2022/09/10 06:57:51;;;;;;;20.13;12.27;;;;;;;23.17;61.01;94564.88;4212310;28;20075;-67
2022/09/10 06:59:53;;;;;;;22.05;11.95;;;;;;;23.29;60.62;94565.59;4211713;28;20132;-66
2022/09/10 07:01:54;;;;;;;12.95;11.23;;;;;;;23.44;60.10;94562.38;4212021;28;20055;-65
2022/09/10 07:03:58;;;;;;;15.18;11.35;;;;;;;23.59;59.60;94553.78;4209415;28;20518;-64
2022/09/10 07:06:04;;;;;;;13.68;11.68;;;;;;;23.72;59.30;94555.34;4209538;28;20101;-66
2022/09/10 07:08:06;;;;;;;25.65;12.75;;;;;;;23.80;58.65;94556.81;4209820;28;20074;-66
2022/09/10 07:10:08;;;;;;;20.10;12.73;;;;;;;23.82;59.04;94562.75;4206846;28;20420;-67
2022/09/10 07:12:10;;;;;;;20.58;13.30;;;;;;;23.73;58.97;94567.66;4211432;28;20086;-66
2022/09/10 07:14:12;;;;;;;17.35;12.68;;;;;;;23.76;59.48;94566.38;4211804;28;20679;-64
2022/09/10 07:16:20;;;;;;;18.85;13.45;;;;;;;23.64;59.64;94569.09;4199029;28;20055;-68
2022/09/10 07:18:23;;;;;;;17.25;12.77;;;;;;;23.74;59.46;94566.59;4206926;28;20063;-66
2022/09/10 07:20:26;;;;;;;18.23;12.20;;;;;;;23.89;59.23;94561.50;4195859;28;20690;-67
2022/09/10 07:22:27;;;;;;;18.05;12.60;;;;;;;23.94;58.49;94554.59;4209900;28;20136;-67
2022/09/10 07:24:29;;;;;;;18.13;12.98;;;;;;;23.73;59.67;94558.84;4211793;28;20122;-66
2022/09/10 07:26:31;;;;;;;17.60;12.85;;;;;;;23.74;59.34;94552.41;4210051;28;20048;-67
2022/09/10 07:28:33;;;;;;;18.38;12.15;;;;;;;23.86;59.11;94555.84;4211579;28;20083;-66
2022/09/10 07:30:34;;;;;;;21.25;12.25;;;;;;;24.03;58.65;94556.63;4207402;28;20072;-66
2022/09/10 07:32:36;;;;;;;16.75;12.38;;;;;;;24.19;58.15;94562.19;4216722;28;20051;-67
2022/09/10 07:34:38;;;;;;;14.35;11.05;;;;;;;24.26;57.57;94560.97;4211548;28;20122;-66
2022/09/10 07:36:39;;;;;;;18.27;11.43;;;;;;;24.27;57.48;94564.44;4211090;28;20052;-65
2022/09/10 07:38:42;;;;;;;19.00;11.80;;;;;;;24.21;56.81;94565.44;4210204;28;20052;-63
2022/09/10 07:40:43;;;;;;;17.55;12.05;;;;;;;24.19;57.31;94562.19;4209316;28;20088;-66
2022/09/10 07:42:45;;;;;;;20.98;11.73;;;;;;;24.23;57.08;94557.97;4211249;28;20079;-65
2022/09/10 07:44:46;;;;;;;21.83;12.60;;;;;;;24.38;57.12;94566.19;4211074;28;20052;-66
2022/09/10 07:46:48;;;;;;;16.27;11.55;;;;;;;24.53;57.23;94566.41;4203021;28;20688;-68
2022/09/10 07:48:55;;;;;;;13.73;11.43;;;;;;;24.67;56.37;94574.06;4195074;28;20140;-66
2022/09/10 07:51:04;;;;;;;14.43;11.95;;;;;;;24.83;55.81;94581.22;4208012;28;20094;-67
2022/09/10 07:53:06;;;;;;;19.48;11.82;;;;;;;24.87;55.46;94576.97;4210548;28;20492;-65
2022/09/10 07:55:08;;;;;;;16.92;12.10;;;;;;;24.91;55.55;94572.75;4207395;28;20055;-65
2022/09/10 07:57:10;;;;;;;13.35;10.95;;;;;;;24.87;55.72;94574.28;4203401;28;20568;-66
2022/09/10 07:59:12;;;;;;;16.48;11.85;;;;;;;24.92;55.52;94568.19;4211209;28;20055;-64
2022/09/10 08:01:14;;;;;;;16.05;11.27;;;;;;;24.99;55.27;94576.00;4213768;28;20075;-64
2022/09/10 08:03:17;;;;;;;14.45;10.95;;;;;;;25.12;55.01;94570.25;4213917;28;20055;-64
2022/09/10 08:05:18;;;;;;;17.52;12.05;;;;;;;25.23;54.59;94573.88;4213879;28;20131;-65
2022/09/10 08:07:20;;;;;;;15.98;11.98;;;;;;;25.28;54.49;94571.25;4213229;28;20499;-65
2022/09/10 08:09:22;;;;;;;19.35;11.38;;;;;;;25.36;54.08;94572.66;4213496;28;20059;-63
2022/09/10 08:11:24;;;;;;;14.48;10.82;;;;;;;25.43;53.44;94574.06;4212386;28;20052;-65
2022/09/10 08:13:28;;;;;;;17.27;11.02;;;;;;;25.32;53.76;94575.06;4212495;28;20048;-67
2022/09/10 08:15:30;;;;;;;15.98;11.13;;;;;;;25.30;53.68;94567.25;4203623;28;20084;-66
2022/09/10 08:17:33;;;;;;;23.05;11.68;;;;;;;25.26;54.44;94570.69;4198678;28;20106;-67
2022/09/10 08:19:35;;;;;;;14.23;11.43;;;;;;;25.27;54.13;94561.56;4198071;28;20052;-67
2022/09/10 08:21:37;;;;;;;13.07;10.90;;;;;;;25.34;54.13;94562.19;4197996;28;20088;-70
2022/09/10 08:23:39;;;;;;;17.80;10.90;;;;;;;25.53;53.71;94554.56;4198494;28;20277;-64
2022/09/10 08:25:50;;;;;;;18.85;10.50;;;;;;;25.78;53.44;94551.28;4196652;28;20615;-67
2022/09/10 08:30:13;;;;;;;19.15;11.27;;;;;;;25.58;52.98;94543.09;4197666;28;20139;-70
2022/09/10 08:32:15;;;;;;;15.23;11.20;;;;;;;25.61;53.50;94550.59;4211607;28;20055;-68
2022/09/10 08:34:17;;;;;;;13.15;10.88;;;;;;;25.67;53.07;94550.38;4221009;28;20128;-66
2022/09/10 08:36:20;;;;;;;18.65;11.52;;;;;;;25.70;53.40;94549.88;4197453;28;20495;-66
2022/09/10 08:38:29;;;;;;;17.50;11.30;;;;;;;25.72;53.16;94547.72;4198783;28;20556;-65
2022/09/10 08:40:31;;;;;;;21.00;11.15;;;;;;;25.71;53.46;94543.44;4209420;28;20039;-67
2022/09/10 08:42:38;;;;;;;15.63;10.98;;;;;;;25.73;53.50;94544.00;4199403;28;20144;-68
2022/09/10 08:44:48;;;;;;;19.48;11.32;;;;;;;25.63;53.82;94543.13;4203524;28;20079;-67
2022/09/10 08:47:19;;;;;;;16.42;10.88;;;;;;;25.62;53.72;94541.47;4214219;28;20476;-67
2022/09/10 08:49:35;;;;;;;14.35;10.73;;;;;;;25.58;53.21;94538.53;4201507;28;20055;-62
2022/09/10 08:51:44;;;;;;;20.33;10.80;;;;;;;25.46;53.76;94540.56;4204400;28;20071;-60
2022/09/10 08:53:54;;;;;;;16.98;10.48;;;;;;;25.22;53.79;94543.59;4211850;28;20040;-62
2022/09/10 08:56:02;;;;;;;17.00;10.93;;;;;;;25.04;54.52;94547.41;4210800;28;20468;-61
2022/09/10 08:58:12;;;;;;;20.67;11.73;;;;;;;25.11;54.35;94547.22;4212542;28;20335;-62
2022/09/10 09:00:20;;;;;;;16.98;10.20;;;;;;;25.24;54.10;94546.81;4212121;28;20090;-60
2022/09/10 09:02:38;;;;;;;16.17;10.85;;;;;;;25.21;53.82;94547.34;4209877;28;20135;-65
2022/09/10 09:04:57;;;;;;;17.42;11.82;;;;;;;25.12;54.18;94546.13;4211576;28;20048;-64
2022/09/10 09:07:01;;;;;;;16.45;11.50;;;;;;;25.10;54.54;94546.41;4212500;28;20126;-63
2022/09/10 09:09:03;;;;;;;19.08;11.02;;;;;;;25.09;54.45;94549.31;4211641;28;20488;-63
2022/09/10 09:11:11;;;;;;;25.17;14.13;;;;;;;25.06;54.41;94539.94;4210687;28;20481;-59
2022/09/10 09:14:00;;;;;;;20.77;12.27;;;;;;;25.12;54.69;94530.88;4211526;28;20412;-62
2022/09/10 09:16:26;;;;;;;18.60;11.15;;;;;;;25.23;54.25;94529.13;4176756;28;20067;-60
2022/09/10 09:18:40;;;;;;;21.02;11.13;;;;;;;25.10;54.33;94526.81;4177633;28;21169;-59
2022/09/10 09:20:47;;;;;;;19.02;11.07;;;;;;;24.96;55.20;94525.63;4173874;28;20056;-59
2022/09/10 09:23:06;;;;;;;18.48;11.52;;;;;;;25.13;54.88;94518.28;4201182;28;20075;-60
2022/09/10 09:25:26;;;;;;;15.93;11.50;;;;;;;25.30;54.87;94516.31;4199879;28;20054;-63
2022/09/10 09:27:31;;;;;;;18.25;10.73;;;;;;;25.37;54.43;94508.06;4220819;28;20050;-61
2022/09/10 09:29:51;;;;;;;20.35;11.68;;;;;;;25.47;54.54;94508.13;4212355;28;20052;-61
2022/09/10 09:31:57;;;;;;;13.57;10.82;;;;;;;25.57;55.12;94501.22;4211034;28;20131;-60
2022/09/10 09:34:12;;;;;;;14.20;10.93;;;;;;;25.67;54.18;94499.41;4208047;28;20059;-60
2022/09/10 09:36:17;;;;;;;13.68;11.02;;;;;;;25.81;54.55;94485.53;4201755;28;20048;-62
2022/09/10 09:38:24;;;;;;;17.10;11.07;;;;;;;25.90;54.42;94486.72;4207503;28;20052;-65
2022/09/10 09:40:44;;;;;;;17.02;10.85;;;;;;;26.00;54.02;94494.81;4210202;28;20117;-66